Ever Unicorn — 9V7963 — position and weather

sailwx.info

Track history (hours):
 
Tides and Currents Weather Stations Pressure Air Temp Water Temp Dewpoint Dewpoint Depression Visibility Wind Speed Wind Dir Waves Ship Positions

Ever Unicorn

Last reported at 2017-Feb-18 16:16 UTC. Time now 2017-Feb-28 03:26 UTC.
Position N 30°37' E 122°05'.
Warning: this ship's position is 9 days out of date.

Length 285 m; draft 9.7 m.

Type: Ship (hazmat cat D). MMSI: 564995000.

Date/timePositionNaut miles runAvg speedWind from/ knotsBaromVisibWave heightAir tempDewpointWater temp
2017-Feb-18 16:16N 30°37' E 122°05'0 0.4
2017-Feb-18 15:32N 30°37' E 122°05'6 5.2
2017-Feb-18 14:27N 30°34' E 122°10'910.3
2017-Feb-18 13:34N 30°33' E 122°21'11 9.8
2017-Feb-18 12:23N 30°30' E 122°34'1011.7
2017-Feb-18 11:32N 30°28' E 122°45'61 9.5
2017-Feb-18 05:03N 31°28' E 122°58'2514.1
2017-Feb-18 03:15N 31°53' E 122°58'  
2017-Feb-14 13:33N 22°54' E 120°00'1919.2
2017-Feb-14 12:33N 22°37' E 120°10'9 8.7
2017-Feb-14 11:32N 22°33' E 120°19'0 0.0
2017-Feb-14 10:32N 22°33' E 120°19'0 0.1
2017-Feb-14 09:33N 22°33' E 120°19'0 0.1
2017-Feb-14 08:33N 22°33' E 120°19'0 0.0
2017-Feb-14 07:33N 22°33' E 120°19'0 0.0
2017-Feb-14 06:33N 22°33' E 120°19'0 0.1
2017-Feb-14 05:33N 22°33' E 120°19'0 0.0
2017-Feb-14 03:33N 22°33' E 120°19'0 0.0
2017-Feb-14 02:33N 22°33' E 120°19'0 0.0
2017-Feb-14 01:33N 22°33' E 120°19'4 4.2
2017-Feb-14 00:33N 22°32' E 120°15'4 4.1
2017-Feb-13 23:33N 22°32' E 120°10'1010.4
2017-Feb-13 22:33N 22°31' E 119°59'  
2017-Feb-09 10:14N 01°15' E 104°09'1420.3
2017-Feb-09 09:33N 01°13' E 103°55'2311.1
2017-Feb-09 07:31N 01°15' E 103°32'  
Track history (hours):
 
Tides and Currents Weather Stations Pressure Air Temp Water Temp Dewpoint Dewpoint Depression Visibility Wind Speed Wind Dir Waves Ship Positions

Ever Unicorn

Last reported at 2017-Feb-18 16:16 UTC. Time now 2017-Feb-28 03:26 UTC.
Position N 30°37' E 122°05'.
Warning: this ship's position is 9 days out of date.

Length 285 m; draft 9.7 m.

Type: Ship (hazmat cat D). MMSI: 564995000.

Date/timePositionNaut miles runAvg speedWind from/ knotsBaromVisibWave heightAir tempDewpointWater temp
2017-Feb-18 16:16N 30°37' E 122°05'0 0.4
2017-Feb-18 15:32N 30°37' E 122°05'6 5.2
2017-Feb-18 14:27N 30°34' E 122°10'910.3
2017-Feb-18 13:34N 30°33' E 122°21'11 9.8
2017-Feb-18 12:23N 30°30' E 122°34'1011.7
2017-Feb-18 11:32N 30°28' E 122°45'61 9.5
2017-Feb-18 05:03N 31°28' E 122°58'2514.1
2017-Feb-18 03:15N 31°53' E 122°58'  
2017-Feb-14 13:33N 22°54' E 120°00'1919.2
2017-Feb-14 12:33N 22°37' E 120°10'9 8.7
2017-Feb-14 11:32N 22°33' E 120°19'0 0.0
2017-Feb-14 10:32N 22°33' E 120°19'0 0.1
2017-Feb-14 09:33N 22°33' E 120°19'0 0.1
2017-Feb-14 08:33N 22°33' E 120°19'0 0.0
2017-Feb-14 07:33N 22°33' E 120°19'0 0.0
2017-Feb-14 06:33N 22°33' E 120°19'0 0.1
2017-Feb-14 05:33N 22°33' E 120°19'0 0.0
2017-Feb-14 03:33N 22°33' E 120°19'0 0.0
2017-Feb-14 02:33N 22°33' E 120°19'0 0.0
2017-Feb-14 01:33N 22°33' E 120°19'4 4.2
2017-Feb-14 00:33N 22°32' E 120°15'4 4.1
2017-Feb-13 23:33N 22°32' E 120°10'1010.4
2017-Feb-13 22:33N 22°31' E 119°59'  
2017-Feb-09 10:14N 01°15' E 104°09'1420.3
2017-Feb-09 09:33N 01°13' E 103°55'2311.1
2017-Feb-09 07:31N 01°15' E 103°32'  

Dump ship's entire track history